createdAt,value
2022-10-17T00:02:25.613Z,15.40
2022-10-17T00:04:52.650Z,15.50
2022-10-17T00:07:19.754Z,15.50
2022-10-17T00:09:46.891Z,15.50
2022-10-17T00:12:13.967Z,15.60
2022-10-17T00:14:41.091Z,15.60
2022-10-17T00:17:08.132Z,15.50
2022-10-17T00:19:35.210Z,15.50
2022-10-17T00:22:02.314Z,15.50
2022-10-17T00:24:30.440Z,15.50
2022-10-17T00:26:57.503Z,15.50
2022-10-17T00:29:24.555Z,15.60
2022-10-17T00:34:29.016Z,15.60
2022-10-17T00:36:56.126Z,15.70
2022-10-17T00:39:23.516Z,15.60
2022-10-17T00:41:50.981Z,14.70
2022-10-17T00:44:30.247Z,14.70
2022-10-17T00:46:57.281Z,15.50
2022-10-17T00:49:26.249Z,15.50
2022-10-17T00:51:55.219Z,16.20
2022-10-17T00:54:27.284Z,15.50
2022-10-17T00:56:54.729Z,15.60
2022-10-17T00:59:22.580Z,15.50
2022-10-17T01:02:09.906Z,15.60
2022-10-17T01:04:37.837Z,15.60
2022-10-17T01:07:04.869Z,15.60
2022-10-17T01:09:32.009Z,15.60
2022-10-17T01:12:02.610Z,15.70
2022-10-17T01:14:43.833Z,15.50
2022-10-17T01:17:10.849Z,15.50
2022-10-17T01:19:40.957Z,15.60
2022-10-17T01:22:08.029Z,15.50
2022-10-17T01:25:00.520Z,15.50
2022-10-17T01:27:46.513Z,15.50
2022-10-17T01:30:32.164Z,15.50
2022-10-17T01:33:05.230Z,15.50
2022-10-17T01:35:41.420Z,15.40
2022-10-17T01:38:08.520Z,15.40
2022-10-17T01:40:44.438Z,15.40
2022-10-17T01:43:21.023Z,15.40
2022-10-17T01:45:51.707Z,15.40
2022-10-17T01:48:21.730Z,15.30
2022-10-17T01:50:52.053Z,15.30
2022-10-17T01:53:25.500Z,15.30
2022-10-17T01:55:54.138Z,15.20
2022-10-17T01:58:26.797Z,15.20
2022-10-17T02:00:54.958Z,15.20
2022-10-17T02:03:22.319Z,15.20
2022-10-17T02:05:49.537Z,15.20
2022-10-17T02:08:25.125Z,15.20
2022-10-17T02:10:57.565Z,15.60
2022-10-17T02:13:24.603Z,15.10
2022-10-17T02:15:59.394Z,15.20
2022-10-17T02:18:47.800Z,15.30
2022-10-17T02:21:17.887Z,15.20
2022-10-17T02:23:44.889Z,15.20
2022-10-17T02:26:25.895Z,15.20
2022-10-17T02:29:02.091Z,15.20
2022-10-17T02:31:32.098Z,15.10
2022-10-17T02:34:01.853Z,15.70
2022-10-17T02:36:36.899Z,15.20
2022-10-17T02:39:05.293Z,14.50
2022-10-17T02:41:33.017Z,15.20
2022-10-17T02:44:02.430Z,15.20
2022-10-17T02:46:30.509Z,15.10
2022-10-17T02:49:00.418Z,15.20
2022-10-17T02:51:41.929Z,15.30
2022-10-17T02:54:28.238Z,15.30
2022-10-17T02:56:57.742Z,15.70
2022-10-17T02:59:26.000Z,15.20
2022-10-17T03:01:56.940Z,16.10
2022-10-17T03:04:24.788Z,15.20
2022-10-17T03:06:51.911Z,15.20
2022-10-17T03:09:18.964Z,15.90
2022-10-17T03:11:46.070Z,15.20
2022-10-17T03:14:13.091Z,15.20
2022-10-17T03:16:40.320Z,15.20
2022-10-17T03:19:07.873Z,15.20
2022-10-17T03:21:37.456Z,15.40
2022-10-17T03:24:04.944Z,16.50
2022-10-17T03:26:32.072Z,15.20
2022-10-17T03:28:59.149Z,15.20
2022-10-17T03:31:26.221Z,15.20
2022-10-17T03:33:53.365Z,15.20
2022-10-17T03:36:20.429Z,15.10
2022-10-17T03:38:48.217Z,15.10
2022-10-17T03:41:15.284Z,15.10
2022-10-17T03:43:42.442Z,15.10
2022-10-17T03:46:09.568Z,15.10
2022-10-17T03:48:36.728Z,14.40
2022-10-17T03:51:08.009Z,15.10
2022-10-17T03:53:35.126Z,15.10
2022-10-17T03:56:18.623Z,15.10
2022-10-17T03:58:45.695Z,15.10
2022-10-17T04:01:13.684Z,15.00
2022-10-17T04:03:40.983Z,15.10
2022-10-17T04:06:08.417Z,15.00
2022-10-17T04:08:35.565Z,15.10
2022-10-17T04:11:04.007Z,15.10
2022-10-17T04:13:31.537Z,14.30
2022-10-17T04:16:08.809Z,15.10
2022-10-17T04:18:35.891Z,15.10
2022-10-17T04:21:03.670Z,14.60
2022-10-17T04:23:30.773Z,15.10
2022-10-17T04:25:58.428Z,15.10
2022-10-17T04:28:26.270Z,14.90
2022-10-17T04:31:07.377Z,15.10
2022-10-17T04:33:34.501Z,15.10
2022-10-17T04:36:02.237Z,15.10
2022-10-17T04:38:29.892Z,15.10
2022-10-17T04:40:57.554Z,15.10
2022-10-17T04:43:24.648Z,15.20
2022-10-17T04:45:51.692Z,15.10
2022-10-17T04:48:18.708Z,15.10
2022-10-17T04:51:14.957Z,15.10
2022-10-17T04:53:42.981Z,15.10
2022-10-17T04:56:17.087Z,15.10
2022-10-17T04:58:44.581Z,15.10
2022-10-17T05:01:13.015Z,15.10
2022-10-17T05:03:40.498Z,15.20
2022-10-17T05:06:17.672Z,15.10
2022-10-17T05:08:45.061Z,15.10
2022-10-17T05:11:18.247Z,15.10
2022-10-17T05:13:49.226Z,15.10
2022-10-17T05:16:16.319Z,15.10
2022-10-17T05:18:43.349Z,15.10
2022-10-17T05:21:10.399Z,15.10
2022-10-17T05:23:37.470Z,15.40
2022-10-17T05:26:04.557Z,15.10
2022-10-17T05:28:31.661Z,15.10
2022-10-17T05:31:02.116Z,15.10
2022-10-17T05:33:29.177Z,15.00
2022-10-17T05:35:56.265Z,15.10
2022-10-17T05:38:23.344Z,15.10
2022-10-17T05:40:50.397Z,15.10
2022-10-17T05:43:17.682Z,15.10
2022-10-17T05:45:44.802Z,15.10
2022-10-17T05:48:11.831Z,15.10
2022-10-17T05:50:38.984Z,15.10
2022-10-17T05:53:06.055Z,15.10
2022-10-17T05:55:33.984Z,15.20
2022-10-17T05:58:01.361Z,15.10
2022-10-17T06:00:28.516Z,15.70
2022-10-17T06:03:00.427Z,15.90
2022-10-17T06:05:27.718Z,15.10
2022-10-17T06:07:58.168Z,15.10
2022-10-17T06:10:28.277Z,15.10
2022-10-17T06:12:56.700Z,15.10
2022-10-17T06:15:23.781Z,15.20
2022-10-17T06:17:50.880Z,15.10
2022-10-17T06:20:17.929Z,15.20
2022-10-17T06:22:44.973Z,15.20
2022-10-17T06:25:12.041Z,15.20
2022-10-17T06:27:39.101Z,15.20
2022-10-17T06:30:06.414Z,15.10
2022-10-17T06:32:33.465Z,15.20
2022-10-17T06:35:00.515Z,15.20
2022-10-17T06:37:33.698Z,15.40
2022-10-17T06:40:04.136Z,15.70
2022-10-17T06:42:31.211Z,15.20
2022-10-17T06:44:58.256Z,15.50
2022-10-17T06:47:25.329Z,15.10
2022-10-17T06:49:52.446Z,15.10
2022-10-17T06:52:19.680Z,15.10
2022-10-17T06:54:46.968Z,15.10
2022-10-17T06:57:14.093Z,15.10
2022-10-17T06:59:41.149Z,15.10
2022-10-17T07:02:09.390Z,15.10
2022-10-17T07:04:36.438Z,15.10
2022-10-17T07:07:03.947Z,15.10
2022-10-17T07:09:31.679Z,15.10
2022-10-17T07:11:59.571Z,15.10
2022-10-17T07:14:32.006Z,15.20
2022-10-17T07:16:59.610Z,15.10
2022-10-17T07:19:29.829Z,14.70
2022-10-17T07:21:56.960Z,15.10
2022-10-17T07:24:24.057Z,15.10
2022-10-17T07:26:51.171Z,15.20
2022-10-17T07:29:18.284Z,15.20
2022-10-17T07:31:48.731Z,15.10
2022-10-17T07:34:15.834Z,15.10
2022-10-17T07:36:42.884Z,15.20
2022-10-17T07:39:10.047Z,15.20
2022-10-17T07:41:37.705Z,15.20
2022-10-17T07:44:04.822Z,15.90
2022-10-17T07:46:31.900Z,15.20
2022-10-17T07:48:59.006Z,15.20
2022-10-17T07:51:26.920Z,15.00
2022-10-17T07:53:53.988Z,15.20
2022-10-17T07:56:24.652Z,14.90
2022-10-17T07:58:52.477Z,15.20
2022-10-17T08:01:19.617Z,15.10
2022-10-17T08:03:48.650Z,15.20
2022-10-17T08:06:15.872Z,15.20
2022-10-17T08:08:43.389Z,14.70
2022-10-17T08:11:11.585Z,15.20
2022-10-17T08:13:39.253Z,15.10
2022-10-17T08:16:07.999Z,15.10
2022-10-17T08:18:36.208Z,15.30
2022-10-17T08:21:06.386Z,15.20
2022-10-17T08:23:33.509Z,15.20
2022-10-17T08:26:01.290Z,15.20
2022-10-17T08:28:28.741Z,16.00
2022-10-17T08:31:03.300Z,15.20
2022-10-17T08:33:30.402Z,15.20
2022-10-17T08:35:58.489Z,15.20
2022-10-17T08:38:27.801Z,15.30
2022-10-17T08:40:57.733Z,15.30
2022-10-17T08:43:43.440Z,15.20
2022-10-17T08:46:11.036Z,15.30
2022-10-17T08:48:42.754Z,15.30
2022-10-17T08:51:15.967Z,15.30
2022-10-17T08:54:03.545Z,15.40
2022-10-17T08:56:48.052Z,15.40
2022-10-17T08:59:18.504Z,15.50
2022-10-17T09:02:11.590Z,15.50
2022-10-17T09:04:45.598Z,15.50
2022-10-17T09:07:12.643Z,15.60
2022-10-17T09:09:52.822Z,15.60
2022-10-17T09:12:37.593Z,15.60
2022-10-17T09:15:05.726Z,15.70
2022-10-17T09:17:52.590Z,15.70
2022-10-17T09:20:22.181Z,15.70
2022-10-17T09:23:09.494Z,15.70
2022-10-17T09:25:41.764Z,15.70
2022-10-17T09:28:12.040Z,15.60
2022-10-17T09:30:47.427Z,15.60
2022-10-17T09:33:34.549Z,15.70
2022-10-17T09:36:04.758Z,15.60
2022-10-17T09:38:42.471Z,15.60
2022-10-17T09:41:39.210Z,15.60
2022-10-17T09:44:15.249Z,15.60
2022-10-17T09:46:43.672Z,15.60
2022-10-17T09:49:16.524Z,15.60
2022-10-17T09:51:44.671Z,15.60
2022-10-17T09:54:24.142Z,15.80
2022-10-17T09:57:01.892Z,15.60
2022-10-17T09:59:32.941Z,15.50
2022-10-17T10:02:09.130Z,15.50
2022-10-17T10:04:59.715Z,15.50
2022-10-17T10:07:28.998Z,15.50
2022-10-17T10:09:56.928Z,15.50
2022-10-17T10:12:26.186Z,15.50
2022-10-17T10:14:55.398Z,15.50
2022-10-17T10:17:28.024Z,15.60
2022-10-17T10:19:55.140Z,15.60
2022-10-17T10:22:25.500Z,15.60
2022-10-17T10:25:07.627Z,15.60
2022-10-17T10:27:34.925Z,15.60
2022-10-17T10:30:02.492Z,15.50
2022-10-17T10:32:32.105Z,15.70
2022-10-17T10:35:01.211Z,15.60
2022-10-17T10:37:37.514Z,15.60
2022-10-17T10:40:05.991Z,15.60
2022-10-17T10:42:33.062Z,16.50
2022-10-17T10:45:02.943Z,15.60
2022-10-17T10:47:31.196Z,15.60
2022-10-17T10:50:20.998Z,15.60
2022-10-17T10:52:55.171Z,15.80
2022-10-17T10:55:25.497Z,15.90
2022-10-17T10:57:56.895Z,15.00
2022-10-17T11:00:25.909Z,17.40
2022-10-17T11:03:01.238Z,15.20
2022-10-17T11:05:57.983Z,15.90
2022-10-17T11:08:45.860Z,16.00
2022-10-17T11:11:24.886Z,16.00
2022-10-17T11:13:57.895Z,16.00
2022-10-17T11:16:24.950Z,16.20
2022-10-17T11:18:58.888Z,16.00
2022-10-17T11:21:44.747Z,16.40
2022-10-17T11:24:25.292Z,16.10
2022-10-17T11:26:58.846Z,16.20
2022-10-17T11:29:30.671Z,16.10
2022-10-17T11:32:00.441Z,16.20
2022-10-17T11:34:29.649Z,16.20
2022-10-17T11:37:01.345Z,16.20
2022-10-17T11:39:28.709Z,16.20
2022-10-17T11:42:12.073Z,16.30
2022-10-17T11:44:40.162Z,16.20
2022-10-17T11:47:25.794Z,16.30
2022-10-17T11:53:02.090Z,16.20
2022-10-17T11:55:30.240Z,16.40
2022-10-17T11:58:00.326Z,16.40
2022-10-17T12:00:35.778Z,16.40
2022-10-17T12:03:07.881Z,16.50
2022-10-17T12:05:43.390Z,16.90
2022-10-17T12:08:18.441Z,16.50
2022-10-17T12:10:48.643Z,16.60
2022-10-17T12:13:27.951Z,16.60
2022-10-17T12:15:55.673Z,16.60
2022-10-17T12:18:27.384Z,16.50
2022-10-17T12:20:58.727Z,16.60
2022-10-17T12:23:27.311Z,16.60
2022-10-17T12:25:58.415Z,16.60
2022-10-17T12:28:44.441Z,16.50
2022-10-17T12:31:17.575Z,16.60
2022-10-17T12:33:55.316Z,16.60
2022-10-17T12:36:22.394Z,16.60
2022-10-17T12:38:50.890Z,16.70
2022-10-17T12:41:37.977Z,16.70
2022-10-17T12:44:14.517Z,16.80
2022-10-17T12:46:44.215Z,16.80
2022-10-17T12:49:34.350Z,16.80
2022-10-17T12:52:16.510Z,16.10
2022-10-17T12:54:47.832Z,16.80
2022-10-17T12:57:45.475Z,16.80
2022-10-17T13:00:12.647Z,16.90
2022-10-17T13:02:40.795Z,16.90
2022-10-17T13:05:11.464Z,16.90
2022-10-17T13:07:41.191Z,16.90
2022-10-17T13:10:18.851Z,16.90
2022-10-17T13:12:46.152Z,16.90
2022-10-17T13:15:16.466Z,16.80
2022-10-17T13:17:43.978Z,16.80
2022-10-17T13:20:25.566Z,16.70
2022-10-17T13:22:57.270Z,16.70
2022-10-17T13:25:25.203Z,16.60
2022-10-17T13:28:02.774Z,17.20
2022-10-17T13:30:32.422Z,16.60
2022-10-17T13:33:00.228Z,16.60
2022-10-17T13:35:55.345Z,16.60
2022-10-17T13:38:17.068Z,16.50
2022-10-17T13:40:50.083Z,16.60
2022-10-17T13:43:19.302Z,16.60
2022-10-17T13:45:50.505Z,16.50
2022-10-17T13:48:19.453Z,16.60
2022-10-17T13:50:48.310Z,16.60
2022-10-17T13:53:20.520Z,16.60
2022-10-17T13:56:09.484Z,16.60
2022-10-17T13:58:43.681Z,16.50
2022-10-17T14:01:12.024Z,16.50
2022-10-17T14:03:48.277Z,16.50
2022-10-17T14:06:17.885Z,16.50
2022-10-17T14:08:50.978Z,16.50
2022-10-17T14:11:23.779Z,16.50
2022-10-17T14:13:52.090Z,16.50
2022-10-17T14:16:19.469Z,16.50
2022-10-17T14:18:50.889Z,16.50
2022-10-17T14:24:13.188Z,16.50
2022-10-17T14:26:47.304Z,16.50
2022-10-17T14:29:26.267Z,16.50
2022-10-17T14:32:04.298Z,16.50
2022-10-17T14:34:33.919Z,16.50
2022-10-17T14:37:01.514Z,16.60
2022-10-17T14:39:29.348Z,16.60
2022-10-17T14:41:58.706Z,16.60
2022-10-17T14:44:30.727Z,16.60
2022-10-17T14:47:00.239Z,16.60
2022-10-17T14:49:33.691Z,16.60
2022-10-17T14:52:18.315Z,16.60
2022-10-17T14:54:47.165Z,16.70
2022-10-17T14:57:19.104Z,16.80
2022-10-17T14:59:55.104Z,16.80
2022-10-17T15:02:26.226Z,16.90
2022-10-17T15:04:53.568Z,16.80
2022-10-17T15:07:21.353Z,16.90
2022-10-17T15:09:49.591Z,16.80
2022-10-17T15:12:20.884Z,16.90
2022-10-17T15:14:48.603Z,16.80
2022-10-17T15:17:18.558Z,16.80
2022-10-17T15:19:45.697Z,16.80
2022-10-17T15:22:13.111Z,16.80
2022-10-17T15:24:40.321Z,16.90
2022-10-17T15:27:14.437Z,16.80
2022-10-17T15:29:41.505Z,16.80
2022-10-17T15:32:08.576Z,16.90
2022-10-17T15:34:35.726Z,16.40
2022-10-17T15:37:03.986Z,16.70
2022-10-17T15:39:31.077Z,16.70
2022-10-17T15:41:59.175Z,17.00
2022-10-17T15:44:26.358Z,16.60
2022-10-17T15:46:53.940Z,16.60
2022-10-17T15:49:21.016Z,16.20
2022-10-17T15:51:51.719Z,16.50
2022-10-17T15:54:22.426Z,16.60
2022-10-17T15:56:53.044Z,16.50
2022-10-17T15:59:22.558Z,17.10
2022-10-17T16:01:49.950Z,16.50
2022-10-17T16:04:18.485Z,16.60
2022-10-17T16:06:45.724Z,16.60
2022-10-17T16:09:12.913Z,16.50
2022-10-17T16:11:41.667Z,16.40
2022-10-17T16:14:12.870Z,16.40
2022-10-17T16:16:40.318Z,16.40
2022-10-17T16:19:07.556Z,16.40
2022-10-17T16:21:35.736Z,16.30
2022-10-17T16:24:03.451Z,16.30
2022-10-17T16:26:30.519Z,16.30
2022-10-17T16:28:58.307Z,16.20
2022-10-17T16:31:28.645Z,16.20
2022-10-17T16:33:56.350Z,16.20
2022-10-17T16:36:23.705Z,16.10
2022-10-17T16:38:51.559Z,16.10
2022-10-17T16:41:23.419Z,16.00
2022-10-17T16:43:51.025Z,15.90
2022-10-17T16:46:18.962Z,15.90
2022-10-17T16:48:46.292Z,15.90
2022-10-17T16:51:14.100Z,15.80
2022-10-17T16:53:43.945Z,15.80
2022-10-17T16:56:12.404Z,16.70
2022-10-17T16:58:40.197Z,15.70
2022-10-17T17:01:08.925Z,15.60
2022-10-17T17:03:39.600Z,15.60
2022-10-17T17:06:07.258Z,15.60
2022-10-17T17:08:34.875Z,15.60
2022-10-17T17:11:02.025Z,15.50
2022-10-17T17:13:29.765Z,15.50
2022-10-17T17:16:07.585Z,15.50
2022-10-17T17:18:34.913Z,15.50
2022-10-17T17:21:02.982Z,15.40
2022-10-17T17:23:30.512Z,15.40
2022-10-17T17:26:01.461Z,15.30
2022-10-17T17:28:29.061Z,15.30
2022-10-17T17:30:56.222Z,15.30
2022-10-17T17:33:24.296Z,15.20
2022-10-17T17:35:57.892Z,15.20
2022-10-17T17:38:24.990Z,15.10
2022-10-17T17:40:52.303Z,15.10
2022-10-17T17:43:19.488Z,15.10
2022-10-17T17:45:46.821Z,15.00
2022-10-17T17:48:14.178Z,15.00
2022-10-17T17:50:41.779Z,15.00
2022-10-17T17:53:09.544Z,15.00
2022-10-17T17:55:36.634Z,15.00
2022-10-17T17:58:04.040Z,14.90
2022-10-17T18:00:31.171Z,14.90
2022-10-17T18:02:58.228Z,14.90
2022-10-17T18:05:25.430Z,14.90
2022-10-17T18:07:52.497Z,14.90
2022-10-17T18:10:19.652Z,14.90
2022-10-17T18:12:46.776Z,14.80
2022-10-17T18:15:14.139Z,14.80
2022-10-17T18:17:41.427Z,14.80
2022-10-17T18:20:08.706Z,14.70
2022-10-17T18:22:35.832Z,14.70
2022-10-17T18:25:03.385Z,14.70
2022-10-17T18:27:30.435Z,14.70
2022-10-17T18:29:57.550Z,14.70
2022-10-17T18:32:24.669Z,14.70
2022-10-17T18:34:51.859Z,15.40
2022-10-17T18:37:19.020Z,16.20
2022-10-17T18:39:48.507Z,14.60
2022-10-17T18:42:15.569Z,14.70
2022-10-17T18:44:43.386Z,14.70
2022-10-17T18:47:11.237Z,14.60
2022-10-17T18:49:38.342Z,15.20
2022-10-17T18:52:05.406Z,14.50
2022-10-17T18:54:33.583Z,14.60
2022-10-17T18:57:00.733Z,14.50
2022-10-17T18:59:27.854Z,14.50
2022-10-17T19:01:55.049Z,14.50
2022-10-17T19:04:22.257Z,14.50
2022-10-17T19:06:49.464Z,14.50
2022-10-17T19:09:16.569Z,14.50
2022-10-17T19:11:43.741Z,14.40
2022-10-17T19:14:14.636Z,15.10
2022-10-17T19:16:43.416Z,14.40
2022-10-17T19:19:12.511Z,14.30
2022-10-17T19:21:39.766Z,14.30
2022-10-17T19:24:08.390Z,14.30
2022-10-17T19:26:36.177Z,14.30
2022-10-17T19:29:04.134Z,14.30
2022-10-17T19:31:32.267Z,14.20
2022-10-17T19:33:59.726Z,14.20
2022-10-17T19:36:32.257Z,14.20
2022-10-17T19:39:02.267Z,14.20
2022-10-17T19:41:29.451Z,14.20
2022-10-17T19:43:56.717Z,14.10
2022-10-17T19:46:25.011Z,14.10
2022-10-17T19:48:52.604Z,14.10
2022-10-17T19:51:20.468Z,14.10
2022-10-17T19:53:47.612Z,14.10
2022-10-17T19:56:18.513Z,14.10
2022-10-17T19:58:46.669Z,14.10
2022-10-17T20:01:17.646Z,13.40
2022-10-17T20:03:45.178Z,14.10
2022-10-17T20:06:12.639Z,14.00
2022-10-17T20:08:40.182Z,14.10
2022-10-17T20:11:08.673Z,14.00
2022-10-17T20:13:36.124Z,13.90
2022-10-17T20:16:03.989Z,13.90
2022-10-17T20:18:31.180Z,13.90
2022-10-17T20:21:02.696Z,14.30
2022-10-17T20:23:29.773Z,13.90
2022-10-17T20:26:08.613Z,13.80
2022-10-17T20:28:46.645Z,13.90
2022-10-17T20:31:14.344Z,13.60
2022-10-17T20:33:44.081Z,15.00
2022-10-17T20:36:11.821Z,13.90
2022-10-17T20:38:39.157Z,13.90
2022-10-17T20:41:09.654Z,13.80
2022-10-17T20:43:37.315Z,13.80
2022-10-17T20:46:22.012Z,14.00
2022-10-17T20:48:53.789Z,13.80
2022-10-17T20:51:21.173Z,13.50
2022-10-17T20:53:48.720Z,13.80
2022-10-17T20:56:26.629Z,13.80
2022-10-17T20:58:54.634Z,13.80
2022-10-17T21:01:22.266Z,13.80
2022-10-17T21:03:49.580Z,13.80
2022-10-17T21:06:17.260Z,13.70
2022-10-17T21:08:44.661Z,13.70
2022-10-17T21:11:16.144Z,14.20
2022-10-17T21:13:43.593Z,13.80
2022-10-17T21:16:16.200Z,13.80
2022-10-17T21:18:43.538Z,13.80
2022-10-17T21:21:12.140Z,13.80
2022-10-17T21:23:39.948Z,13.70
2022-10-17T21:26:08.965Z,13.70
2022-10-17T21:28:37.082Z,13.70
2022-10-17T21:31:23.603Z,13.60
2022-10-17T21:33:51.822Z,13.80
2022-10-17T21:36:19.642Z,13.60
2022-10-17T21:38:47.506Z,13.60
2022-10-17T21:41:15.654Z,13.70
2022-10-17T21:43:43.171Z,13.50
2022-10-17T21:46:12.084Z,13.50
2022-10-17T21:48:39.384Z,13.50
2022-10-17T21:51:07.853Z,13.40
2022-10-17T21:53:35.183Z,13.20
2022-10-17T21:56:03.219Z,13.30
2022-10-17T21:58:30.487Z,13.30
2022-10-17T22:01:04.868Z,13.30
2022-10-17T22:03:33.104Z,13.30
2022-10-17T22:06:12.769Z,13.20
2022-10-17T22:08:47.484Z,13.20
2022-10-17T22:11:16.209Z,13.10
2022-10-17T22:13:43.312Z,12.50
2022-10-17T22:16:12.001Z,13.00
2022-10-17T22:18:39.389Z,13.10
2022-10-17T22:21:10.927Z,13.70
2022-10-17T22:23:38.389Z,13.70
2022-10-17T22:26:06.001Z,12.90
2022-10-17T22:28:33.539Z,12.90
2022-10-17T22:31:00.856Z,12.80
2022-10-17T22:33:28.449Z,13.10
2022-10-17T22:35:55.685Z,12.80
2022-10-17T22:38:22.792Z,13.80
2022-10-17T22:40:49.932Z,12.80
2022-10-17T22:43:17.012Z,13.20
2022-10-17T22:45:51.105Z,12.70
2022-10-17T22:48:18.171Z,12.70
2022-10-17T22:50:46.747Z,12.70
2022-10-17T22:53:13.867Z,13.80
2022-10-17T22:55:40.949Z,12.60
2022-10-17T22:58:08.037Z,12.70
2022-10-17T23:00:35.068Z,12.70
2022-10-17T23:03:02.145Z,12.80
2022-10-17T23:05:29.236Z,12.70
2022-10-17T23:07:57.391Z,12.70
2022-10-17T23:10:24.460Z,12.60
2022-10-17T23:12:51.533Z,12.60
2022-10-17T23:15:18.617Z,12.50
2022-10-17T23:17:45.886Z,13.00
2022-10-17T23:20:13.019Z,12.50
2022-10-17T23:22:40.062Z,12.50
2022-10-17T23:25:07.393Z,13.40
2022-10-17T23:27:34.762Z,12.40
2022-10-17T23:30:02.139Z,11.80
2022-10-17T23:32:29.439Z,12.40
2022-10-17T23:34:56.717Z,12.30
2022-10-17T23:37:23.762Z,12.30
2022-10-17T23:39:50.836Z,12.30
2022-10-17T23:42:17.976Z,12.20
2022-10-17T23:44:45.127Z,13.20
2022-10-17T23:47:12.183Z,12.30
2022-10-17T23:49:39.519Z,12.20
2022-10-17T23:52:06.607Z,12.20
2022-10-17T23:54:33.674Z,12.10
2022-10-17T23:57:00.770Z,12.10
2022-10-17T23:59:27.847Z,12.10
